TimeAEST,TemperatureF,Dew PointF,Humidity,Sea Level PressureIn,VisibilityMPH,Wind Direction,Wind SpeedMPH,Gust SpeedMPH,PrecipitationIn,Events,Conditions,WindDirDegrees,DateUTC
12:00 AM,53,45,66,29.67,19,North,24.2,,,,Partly Cloudy,0,2013-08-11 14:00:00
12:00 AM,53.6,44.6,72,29.65,-9999.0,North,24.2,-,N/A,,Clear,360,2013-08-11 14:00:00
12:08 AM,53.6,44.6,72,29.65,-9999.0,North,26.5,38.0,N/A,,Clear,360,2013-08-11 14:08:00
12:30 AM,53.6,44.6,72,29.65,-9999.0,North,28.8,41.4,N/A,,Clear,360,2013-08-11 14:30:00
1:00 AM,52,45,71,29.64,,North,25.3,,,,,0,2013-08-11 15:00:00
1:00 AM,51.8,44.6,76,29.62,-9999.0,North,25.3,-,N/A,,Clear,360,2013-08-11 15:00:00
1:30 AM,53.6,46.4,77,29.62,-9999.0,North,20.7,-,N/A,,Clear,350,2013-08-11 15:30:00
2:00 AM,52,46,74,29.64,,North,19.6,,,,,350,2013-08-11 16:00:00
2:00 AM,51.8,46.4,82,29.62,6.2,North,19.6,-,N/A,,Partly Cloudy,350,2013-08-11 16:00:00
2:30 AM,51.8,46.4,82,29.59,6.2,North,21.9,-,N/A,,Partly Cloudy,360,2013-08-11 16:30:00
3:00 AM,51,47,80,29.60,19,North,23.0,,,,Partly Cloudy,0,2013-08-11 17:00:00
3:00 AM,50.0,46.4,87,29.59,6.2,North,23.0,-,N/A,,Partly Cloudy,360,2013-08-11 17:00:00
3:30 AM,51.8,46.4,82,29.56,6.2,North,21.9,-,N/A,,Partly Cloudy,360,2013-08-11 17:30:00
4:00 AM,51,47,80,29.56,,North,21.9,,,,,0,2013-08-11 18:00:00
4:00 AM,50.0,46.4,87,29.53,6.2,North,21.9,-,N/A,,Partly Cloudy,360,2013-08-11 18:00:00
4:30 AM,50.0,46.4,87,29.53,6.2,North,21.9,-,N/A,,Partly Cloudy,360,2013-08-11 18:30:00
5:00 AM,51,47,80,29.56,,North,19.6,,,,,0,2013-08-11 19:00:00
5:00 AM,50.0,46.4,87,29.53,6.2,North,19.6,-,N/A,Rain,Light Rain,360,2013-08-11 19:00:00
5:30 AM,50.0,46.4,87,29.53,-9999.0,North,19.6,-,N/A,,Clear,360,2013-08-11 19:30:00
6:00 AM,51,46,77,29.53,19,North,20.7,,,,Partly Cloudy,0,2013-08-11 20:00:00
6:00 AM,51.8,46.4,82,29.50,-9999.0,North,20.7,-,N/A,,Clear,360,2013-08-11 20:00:00
6:30 AM,51.8,46.4,82,29.50,6.2,North,17.3,-,N/A,,Partly Cloudy,360,2013-08-11 20:30:00
7:00 AM,51,45,74,29.55,,North,17.3,,,,,0,2013-08-11 21:00:00
7:00 AM,51.8,44.6,76,29.53,6.2,North,17.3,-,N/A,,Scattered Clouds,360,2013-08-11 21:00:00
8:00 AM,54,45,64,29.53,,NNW,10.4,,,,,330,2013-08-11 22:00:00
8:00 AM,53.6,44.6,72,29.50,6.2,NNW,10.4,-,N/A,,Scattered Clouds,330,2013-08-11 22:00:00
8:30 AM,55.4,44.6,67,29.53,6.2,WNW,16.1,-,N/A,,Scattered Clouds,290,2013-08-11 22:30:00
9:00 AM,57.2,42.8,59,29.53,6.2,WNW,18.4,-,N/A,,Partly Cloudy,290,2013-08-11 23:00:00
9:35 AM,53.6,41.0,62,29.56,6.2,WSW,35.7,-,N/A,Rain,Light Rain Showers,250,2013-08-11 23:35:00
9:44 AM,50.0,41.0,71,29.56,6.2,West,35.7,47.2,N/A,Rain,Light Rain Showers,260,2013-08-11 23:44:00
10:00 AM,50.0,39.2,66,29.56,6.2,West,31.1,44.9,N/A,,Mostly Cloudy,270,2013-08-12 00:00:00
10:30 AM,53.6,39.2,58,29.56,6.2,West,27.6,-,N/A,,Scattered Clouds,270,2013-08-12 00:30:00
10:56 AM,53.6,37.4,54,29.59,6.2,West,31.1,42.6,N/A,,Mostly Cloudy,270,2013-08-12 00:56:00
11:00 AM,54,37,41,29.61,,West,32.2,,,,,270,2013-08-12 01:00:00
11:06 AM,50.0,39.2,66,29.59,6.2,WSW,42.6,54.1,N/A,,Mostly Cloudy,250,2013-08-12 01:06:00
11:13 AM,50.0,37.4,62,29.59,-9999.0,West,29.9,-,N/A,,Unknown,260,2013-08-12 01:13:00
11:30 AM,53.6,37.4,54,29.59,6.2,West,32.2,-,N/A,,Mostly Cloudy,270,2013-08-12 01:30:00
11:36 AM,53.6,37.4,54,29.59,6.2,West,33.4,44.9,N/A,,Scattered Clouds,270,2013-08-12 01:36:00
12:00 PM,53.6,35.6,51,29.62,6.2,West,36.8,49.5,N/A,,Mostly Cloudy,270,2013-08-12 02:00:00
12:30 PM,53.6,32.0,44,29.62,6.2,West,33.4,47.2,N/A,,Mostly Cloudy,260,2013-08-12 02:30:00
1:00 PM,50,37,51,29.65,,WSW,33.4,,,,,250,2013-08-12 03:00:00
1:00 PM,50.0,37.4,62,29.62,6.2,WSW,33.4,47.2,N/A,Rain,Light Rain Showers,250,2013-08-12 03:00:00
1:06 PM,48.2,39.2,71,29.65,3.7,WSW,32.2,43.7,N/A,Rain,Light Rain Showers,240,2013-08-12 03:06:00
1:19 PM,50.0,39.2,66,29.65,6.2,WSW,25.3,-,N/A,,Scattered Clouds,250,2013-08-12 03:19:00
1:30 PM,51.8,39.2,62,29.65,6.2,West,19.6,-,N/A,,Scattered Clouds,260,2013-08-12 03:30:00
1:40 PM,53.6,37.4,54,29.65,6.2,West,24.2,39.1,N/A,,Scattered Clouds,270,2013-08-12 03:40:00
2:00 PM,53.6,32.0,44,29.65,6.2,West,29.9,42.6,N/A,,Mostly Cloudy,260,2013-08-12 04:00:00
2:30 PM,55.4,30.2,38,29.65,6.2,WSW,26.5,42.6,N/A,,Scattered Clouds,240,2013-08-12 04:30:00
3:00 PM,55.4,30.2,38,29.65,-9999.0,WSW,29.9,-,N/A,,Clear,250,2013-08-12 05:00:00
3:10 PM,55.4,28.4,36,29.65,-9999.0,WSW,25.3,36.8,N/A,,Clear,250,2013-08-12 05:10:00
3:30 PM,55.4,28.4,36,29.68,-9999.0,WSW,27.6,-,N/A,,Clear,250,2013-08-12 05:30:00
4:00 PM,54,31,30,29.70,,WSW,24.2,,,,,240,2013-08-12 06:00:00
4:00 PM,55.4,32.0,41,29.68,-9999.0,WSW,24.2,-,N/A,,Clear,240,2013-08-12 06:00:00
4:30 PM,53.6,32.0,44,29.68,6.2,WSW,16.1,-,N/A,,Unknown,250,2013-08-12 06:30:00
5:00 PM,53,32,32,29.72,,WSW,17.3,,,,,250,2013-08-12 07:00:00
5:00 PM,53.6,32.0,44,29.71,6.2,WSW,17.3,-,N/A,,Scattered Clouds,250,2013-08-12 07:00:00
5:30 PM,48.2,35.6,62,29.71,-9999.0,SW,11.5,-,N/A,,Clear,230,2013-08-12 07:30:00
6:00 PM,46,37,61,29.73,19,West,4.6,,,,Partly Cloudy,260,2013-08-12 08:00:00
6:00 PM,46.4,37.4,71,29.71,6.2,West,4.6,-,N/A,,Partly Cloudy,260,2013-08-12 08:00:00
6:30 PM,46.4,35.6,66,29.71,6.2,NW,1.2,-,N/A,,Partly Cloudy,320,2013-08-12 08:30:00
7:00 PM,43,37,72,29.74,,North,2.3,,,,,0,2013-08-12 09:00:00
7:00 PM,42.8,37.4,81,29.71,6.2,North,2.3,-,N/A,,Partly Cloudy,360,2013-08-12 09:00:00
7:30 PM,44.6,37.4,76,29.71,6.2,North,9.2,-,N/A,,Partly Cloudy,360,2013-08-12 09:30:00
8:00 PM,46,33,48,29.73,,North,11.5,,,,,350,2013-08-12 10:00:00
8:00 PM,46.4,32.0,57,29.71,6.2,North,11.5,-,N/A,,Mostly Cloudy,350,2013-08-12 10:00:00
8:30 PM,50.0,30.2,47,29.71,-9999.0,North,11.5,-,N/A,,Clear,350,2013-08-12 10:30:00
9:00 PM,51,30,31,29.72,19,NNW,15.0,,,,Partly Cloudy,340,2013-08-12 11:00:00
9:00 PM,50.0,30.2,47,29.71,-9999.0,NNW,15.0,-,N/A,,Clear,340,2013-08-12 11:00:00
9:30 PM,50.0,32.0,50,29.71,-9999.0,NNW,12.7,-,N/A,,Clear,340,2013-08-12 11:30:00
10:00 PM,50,35,43,29.72,,WNW,18.4,,,,,300,2013-08-12 12:00:00
10:00 PM,50.0,33.8,54,29.71,-9999.0,WNW,18.4,-,N/A,,Clear,300,2013-08-12 12:00:00
10:20 PM,51.8,33.8,50,29.71,6.2,NW,19.6,31.1,N/A,Rain,Light Rain,310,2013-08-12 12:20:00
10:30 PM,50.0,35.6,58,29.68,-9999.0,NW,20.7,35.7,N/A,,Clear,320,2013-08-12 12:30:00
11:00 PM,50,36,48,29.71,,NW,24.2,,,,,310,2013-08-12 13:00:00
11:00 PM,50.0,35.6,58,29.71,-9999.0,NW,24.2,35.7,N/A,,Clear,310,2013-08-12 13:00:00
11:30 PM,46.4,41.0,81,29.71,6.2,WNW,23.0,34.5,N/A,Rain,Light Rain,300,2013-08-12 13:30:00
11:49 PM,48.2,39.2,71,29.71,6.2,NNW,11.5,-,N/A,,Mostly Cloudy,330,2013-08-12 13:49:00